Time;durP1;ratioP1;P1;durP2;ratioP2;P2;SDS_P1;SDS_P2;PMS_P1;PMS_P2;Temp;Humidity;BMP_temperature;BMP_pressure;BME280_temperature;BME280_humidity;BME280_pressure;Samples;Min_cycle;Max_cycle;Signal;HPM_P1;HPM_P2
2022/07/18 00:00:42;;;;;;;13.98;6.88;;;19.10;55.10;;;;;;9180680;19;20025;-66
2022/07/18 00:03:47;;;;;;;12.18;6.90;;;19.10;55.10;;;;;;9178160;19;20476;-66
2022/07/18 00:06:52;;;;;;;13.38;7.15;;;19.00;55.10;;;;;;9179180;19;20026;-66
2022/07/18 00:09:58;;;;;;;10.93;6.57;;;19.00;55.30;;;;;;9181805;19;20174;-65
2022/07/18 00:13:05;;;;;;;16.58;6.72;;;18.90;55.30;;;;;;9182049;19;20507;-66
2022/07/18 00:16:11;;;;;;;12.27;6.75;;;18.90;56.10;;;;;;9178514;19;20025;-66
2022/07/18 00:19:16;;;;;;;12.50;7.28;;;18.90;55.50;;;;;;9181449;19;20784;-66
2022/07/18 00:22:21;;;;;;;11.65;6.80;;;18.80;55.60;;;;;;9180464;19;20014;-66
2022/07/18 00:25:26;;;;;;;13.05;7.15;;;18.80;55.70;;;;;;9181885;19;20353;-66
2022/07/18 00:28:34;;;;;;;16.55;7.38;;;18.70;55.80;;;;;;9180489;19;20031;-66
2022/07/18 00:31:41;;;;;;;15.13;7.97;;;18.70;55.90;;;;;;9181982;19;20021;-67
2022/07/18 00:34:46;;;;;;;22.00;7.18;;;18.70;55.90;;;;;;9180456;19;20006;-66
2022/07/18 00:37:51;;;;;;;15.05;7.28;;;18.60;56.00;;;;;;9179645;19;20387;-66
2022/07/18 00:40:56;;;;;;;15.55;7.72;;;18.60;56.70;;;;;;9179630;19;20010;-65
2022/07/18 00:44:03;;;;;;;13.88;8.35;;;18.50;56.10;;;;;;9179997;19;20014;-66
2022/07/18 00:47:08;;;;;;;14.75;7.85;;;18.50;56.40;;;;;;9179967;19;20025;-66
2022/07/18 00:50:14;;;;;;;14.50;8.13;;;18.50;56.40;;;;;;9180899;19;20018;-68
2022/07/18 00:53:19;;;;;;;12.60;7.25;;;18.40;56.40;;;;;;9180647;19;20014;-66
2022/07/18 00:56:24;;;;;;;15.07;8.43;;;18.40;56.50;;;;;;9179308;19;20006;-66
2022/07/18 01:02:49;;;;;;;13.00;7.47;;;18.30;56.70;;;;;;9178422;19;20014;-66
2022/07/18 01:05:55;;;;;;;12.07;7.45;;;18.30;56.70;;;;;;9172900;19;20514;-66
2022/07/18 01:09:00;;;;;;;16.08;8.32;;;18.20;56.80;;;;;;9178852;19;20002;-66
2022/07/18 01:12:07;;;;;;;14.05;7.22;;;18.20;56.90;;;;;;9175924;19;20018;-67
2022/07/18 01:15:15;;;;;;;14.90;7.82;;;18.20;57.00;;;;;;9180103;19;20475;-65
2022/07/18 01:18:20;;;;;;;13.80;7.95;;;18.10;57.10;;;;;;9179973;19;20018;-66
2022/07/18 01:21:28;;;;;;;14.00;7.65;;;18.10;57.10;;;;;;9180309;19;20130;-66
2022/07/18 01:24:33;;;;;;;16.05;8.63;;;18.10;57.30;;;;;;9178342;19;20034;-66
2022/07/18 01:27:39;;;;;;;14.40;7.50;;;18.00;57.20;;;;;;9176562;19;20017;-66
2022/07/18 01:30:45;;;;;;;13.70;8.20;;;18.00;57.30;;;;;;9177781;19;20022;-65
2022/07/18 01:33:50;;;;;;;13.85;8.32;;;18.00;57.40;;;;;;9178928;19;20026;-66
2022/07/18 01:36:57;;;;;;;13.43;7.78;;;17.90;57.40;;;;;;9178032;19;20015;-66
2022/07/18 01:40:02;;;;;;;14.20;8.00;;;17.90;57.60;;;;;;9177925;19;20010;-66
2022/07/18 01:43:07;;;;;;;16.77;8.23;;;17.90;57.60;;;;;;9178446;19;20018;-66
2022/07/18 01:46:13;;;;;;;15.30;8.60;;;17.80;57.60;;;;;;9179181;19;20015;-66
2022/07/18 01:49:18;;;;;;;16.00;8.18;;;17.80;57.70;;;;;;9180904;19;20102;-66
2022/07/18 01:52:26;;;;;;;14.82;8.20;;;17.70;57.80;;;;;;9186455;19;20018;-66
2022/07/18 01:55:31;;;;;;;14.85;7.65;;;17.70;57.90;;;;;;9188416;19;20018;-66
2022/07/18 01:58:36;;;;;;;15.70;7.82;;;17.70;57.90;;;;;;9188107;19;20006;-66
2022/07/18 02:01:41;;;;;;;17.23;8.55;;;17.70;58.00;;;;;;9188108;19;20018;-66
2022/07/18 02:05:02;;;;;;;15.15;8.50;;;17.70;58.10;;;;;;9179887;19;20020;-66
2022/07/18 02:08:10;;;;;;;12.98;7.78;;;17.60;58.10;;;;;;9182645;19;20006;-66
2022/07/18 02:11:15;;;;;;;14.80;7.43;;;17.60;58.20;;;;;;9187897;19;20348;-65
2022/07/18 02:14:20;;;;;;;14.98;8.15;;;17.60;58.20;;;;;;9187646;19;20019;-66
2022/07/18 02:17:25;;;;;;;17.40;7.40;;;17.50;58.30;;;;;;9187094;19;20368;-65
2022/07/18 02:20:30;;;;;;;14.88;7.15;;;17.50;58.40;;;;;;9185013;19;20066;-66
2022/07/18 02:23:38;;;;;;;14.88;7.72;;;17.50;58.40;;;;;;9186595;19;20484;-67
2022/07/18 02:26:43;;;;;;;18.48;7.97;;;17.50;58.60;;;;;;9184553;19;20014;-66
2022/07/18 02:29:49;;;;;;;16.13;7.93;;;17.40;58.50;;;;;;9185605;19;20760;-66
2022/07/18 02:32:55;;;;;;;15.15;7.88;;;17.40;58.60;;;;;;9185080;19;20022;-66
2022/07/18 02:36:00;;;;;;;17.67;8.10;;;17.40;58.70;;;;;;9187367;19;20018;-66
2022/07/18 02:39:08;;;;;;;14.60;8.57;;;17.30;58.80;;;;;;9184321;19;20093;-66
2022/07/18 02:42:13;;;;;;;14.77;7.85;;;17.30;58.90;;;;;;9184839;19;20017;-65
2022/07/18 02:45:18;;;;;;;18.15;8.57;;;17.20;58.90;;;;;;9184386;19;20490;-66
2022/07/18 02:48:23;;;;;;;15.50;7.45;;;17.20;58.90;;;;;;9183510;19;20007;-65
2022/07/18 02:51:28;;;;;;;18.15;8.23;;;17.20;59.00;;;;;;9184611;19;20337;-66
2022/07/18 02:54:38;;;;;;;14.43;7.80;;;17.20;59.00;;;;;;9184557;19;20026;-66
2022/07/18 02:57:43;;;;;;;15.10;7.50;;;17.10;59.10;;;;;;9183569;19;20034;-66
2022/07/18 03:00:48;;;;;;;19.55;8.68;;;17.10;59.80;;;;;;9181653;19;20011;-66
2022/07/18 03:03:53;;;;;;;13.10;7.75;;;17.10;59.20;;;;;;9178291;19;20054;-66
2022/07/18 03:06:58;;;;;;;14.13;7.85;;;17.00;59.20;;;;;;9184115;19;20478;-66
2022/07/18 03:10:06;;;;;;;15.18;8.35;;;17.00;59.30;;;;;;9185679;19;20023;-67
2022/07/18 03:13:13;;;;;;;11.23;7.07;;;17.00;59.50;;;;;;9182982;19;20022;-66
2022/07/18 03:16:18;;;;;;;12.15;7.68;;;16.90;59.40;;;;;;9183785;19;20060;-66
2022/07/18 03:19:23;;;;;;;13.90;7.35;;;16.90;59.40;;;;;;9184737;19;20019;-66
2022/07/18 03:22:28;;;;;;;13.60;7.15;;;16.90;59.50;;;;;;9182481;19;20078;-66
2022/07/18 03:25:36;;;;;;;12.18;7.22;;;16.90;59.60;;;;;;9184378;19;20033;-65
2022/07/18 03:28:42;;;;;;;18.50;8.35;;;16.90;59.70;;;;;;9181648;19;20122;-66
2022/07/18 03:31:47;;;;;;;12.15;7.20;;;16.80;59.70;;;;;;9184643;19;20006;-66
2022/07/18 03:34:52;;;;;;;12.52;7.53;;;16.80;59.80;;;;;;9184568;19;20014;-67
2022/07/18 03:37:57;;;;;;;15.50;7.78;;;16.80;59.80;;;;;;9184239;19;20033;-66
2022/07/18 03:41:05;;;;;;;11.82;7.20;;;16.70;59.80;;;;;;9182223;19;20011;-66
2022/07/18 03:44:10;;;;;;;13.85;7.47;;;16.70;59.90;;;;;;9181560;19;20022;-65
2022/07/18 03:47:15;;;;;;;14.15;7.82;;;16.70;59.90;;;;;;9182790;19;20959;-65
2022/07/18 03:50:20;;;;;;;13.40;6.95;;;16.60;59.90;;;;;;9182532;19;20015;-66
2022/07/18 03:53:25;;;;;;;14.30;7.05;;;16.60;59.90;;;;;;9184025;19;20014;-65
2022/07/18 03:56:33;;;;;;;14.65;8.63;;;16.60;60.00;;;;;;9181859;19;20531;-65
2022/07/18 03:59:39;;;;;;;15.60;6.90;;;16.60;60.10;;;;;;9182106;19;20025;-66
2022/07/18 04:02:45;;;;;;;18.35;8.10;;;16.60;60.10;;;;;;9180758;19;20006;-66
2022/07/18 04:05:51;;;;;;;14.68;7.32;;;16.60;60.20;;;;;;9176233;19;20010;-65
2022/07/18 04:08:56;;;;;;;15.98;7.10;;;16.50;60.20;;;;;;9180076;19;20077;-66
2022/07/18 04:12:03;;;;;;;13.30;7.13;;;16.50;60.30;;;;;;9180556;19;20395;-65
2022/07/18 04:15:09;;;;;;;12.35;6.18;;;16.50;60.40;;;;;;9180717;19;20018;-65
2022/07/18 04:18:14;;;;;;;11.02;6.45;;;16.50;60.40;;;;;;9179983;19;20007;-65
2022/07/18 04:21:19;;;;;;;14.48;5.95;;;16.50;60.40;;;;;;9182934;19;20407;-66
2022/07/18 04:24:24;;;;;;;12.57;5.85;;;16.50;60.40;;;;;;9182582;19;20015;-66
2022/07/18 04:27:32;;;;;;;9.40;5.82;;;16.50;60.50;;;;;;9180003;19;20361;-66
2022/07/18 04:30:38;;;;;;;11.93;5.65;;;16.40;60.50;;;;;;9181073;19;20011;-65
2022/07/18 04:33:43;;;;;;;15.82;6.68;;;16.40;60.40;;;;;;9182310;19;20019;-66
2022/07/18 04:36:48;;;;;;;12.30;5.78;;;16.40;61.10;;;;;;9182335;19;20018;-65
2022/07/18 04:39:53;;;;;;;11.18;5.07;;;16.40;60.50;;;;;;9180321;19;20014;-66
2022/07/18 04:43:01;;;;;;;15.07;6.03;;;16.50;60.60;;;;;;9181035;19;20361;-65
2022/07/18 04:46:06;;;;;;;15.55;5.60;;;16.40;60.60;;;;;;9179359;19;20018;-66
2022/07/18 04:49:11;;;;;;;15.32;5.80;;;16.40;60.60;;;;;;9178267;19;20649;-66
2022/07/18 04:52:16;;;;;;;10.18;4.65;;;16.40;60.60;;;;;;9181628;19;20059;-65
2022/07/18 04:55:23;;;;;;;10.75;5.05;;;16.50;60.70;;;;;;9179943;19;20240;-65
2022/07/18 04:58:30;;;;;;;9.07;5.38;;;16.40;60.70;;;;;;9179204;19;20856;-65
2022/07/18 05:01:35;;;;;;;13.40;5.05;;;16.50;60.80;;;;;;9179933;19;20022;-66
2022/07/18 05:04:41;;;;;;;9.90;5.20;;;16.50;60.70;;;;;;9173980;19;20030;-65
2022/07/18 05:07:48;;;;;;;13.82;5.18;;;16.50;60.80;;;;;;9180418;19;20633;-65
2022/07/18 05:10:53;;;;;;;7.60;4.60;;;16.50;60.90;;;;;;9178318;19;20483;-66
2022/07/18 05:14:01;;;;;;;8.20;4.60;;;16.50;60.90;;;;;;9180404;19;20026;-65
2022/07/18 05:17:06;;;;;;;13.68;5.15;;;16.50;60.90;;;;;;9178627;19;20498;-65
2022/07/18 05:20:15;;;;;;;11.85;5.05;;;16.60;60.90;;;;;;9179909;19;20462;-65
2022/07/18 05:23:23;;;;;;;13.32;4.95;;;16.60;61.00;;;;;;9177325;19;20509;-66
2022/07/18 05:26:28;;;;;;;10.27;4.90;;;16.60;61.00;;;;;;9178455;19;20018;-65
2022/07/18 05:29:42;;;;;;;13.23;5.15;;;16.60;61.00;;;;;;9177458;19;20018;-65
2022/07/18 05:32:47;;;;;;;12.85;6.00;;;16.70;61.20;;;;;;9177913;19;20018;-65
2022/07/18 05:35:53;;;;;;;16.65;6.00;;;16.70;61.80;;;;;;9179937;19;20022;-65
2022/07/18 05:38:58;;;;;;;25.77;5.75;;;16.80;61.20;;;;;;9177812;19;20376;-65
2022/07/18 05:42:03;;;;;;;11.40;4.55;;;16.80;61.30;;;;;;9179211;19;20025;-65
2022/07/18 05:45:12;;;;;;;11.63;4.38;;;16.90;61.30;;;;;;9177451;19;20399;-65
2022/07/18 05:48:17;;;;;;;10.38;4.32;;;17.00;61.40;;;;;;9178682;19;20011;-65
2022/07/18 05:51:22;;;;;;;12.27;4.00;;;17.10;61.30;;;;;;9176358;19;20006;-66
2022/07/18 05:54:27;;;;;;;6.68;3.80;;;17.30;61.40;;;;;;9173935;19;20022;-65
2022/07/18 05:57:32;;;;;;;7.00;3.58;;;17.40;61.30;;;;;;9179642;19;20018;-65
2022/07/18 06:00:40;;;;;;;8.43;3.65;;;17.60;61.30;;;;;;9177453;19;20010;-65
2022/07/18 06:03:46;;;;;;;8.13;3.30;;;17.80;61.20;;;;;;9173153;19;20026;-65
2022/07/18 06:06:51;;;;;;;13.65;3.78;;;18.00;61.00;;;;;;9177126;19;20014;-66
2022/07/18 06:09:56;;;;;;;7.95;3.65;;;18.20;61.00;;;;;;9176186;19;20026;-66
2022/07/18 06:13:01;;;;;;;6.60;3.10;;;18.40;60.90;;;;;;9170698;19;20471;-66
2022/07/18 06:16:09;;;;;;;8.90;3.35;;;18.60;60.70;;;;;;9171965;19;20014;-66
2022/07/18 06:19:14;;;;;;;7.05;2.88;;;18.90;60.70;;;;;;9170329;19;20119;-68
2022/07/18 06:22:24;;;;;;;7.25;2.67;;;19.00;60.50;;;;;;9165801;19;20023;-66
2022/07/18 06:25:31;;;;;;;9.98;2.85;;;19.20;60.40;;;;;;9167290;19;20026;-65
2022/07/18 06:28:36;;;;;;;7.97;2.30;;;19.30;60.20;;;;;;9169421;19;20018;-66
2022/07/18 06:31:44;;;;;;;10.60;3.08;;;19.50;60.10;;;;;;9170221;19;20018;-65
2022/07/18 06:34:49;;;;;;;10.27;2.42;;;19.60;59.90;;;;;;9170041;19;20011;-66
2022/07/18 06:37:54;;;;;;;13.63;3.17;;;19.70;59.80;;;;;;9179049;19;20387;-67
2022/07/18 06:40:59;;;;;;;10.60;2.65;;;19.80;59.60;;;;;;9180427;19;20025;-65
2022/07/18 06:44:04;;;;;;;10.85;2.42;;;19.90;59.60;;;;;;9181751;19;20014;-64
2022/07/18 06:47:11;;;;;;;3.25;2.20;;;20.00;59.50;;;;;;9176916;19;20452;-68
2022/07/18 06:50:17;;;;;;;8.65;3.35;;;20.10;59.50;;;;;;9174515;19;20475;-64
2022/07/18 06:53:22;;;;;;;5.60;2.10;;;20.20;59.40;;;;;;9181350;19;20014;-63
2022/07/18 06:56:27;;;;;;;4.57;2.20;;;20.30;59.30;;;;;;9180467;19;20343;-64
2022/07/18 06:59:32;;;;;;;3.35;1.42;;;20.40;59.30;;;;;;9183837;19;20348;-63
2022/07/18 07:02:42;;;;;;;6.82;2.08;;;20.40;59.10;;;;;;9183788;19;20014;-64
2022/07/18 07:05:47;;;;;;;6.25;2.15;;;20.50;59.10;;;;;;9173372;19;20017;-63
2022/07/18 07:08:52;;;;;;;7.00;2.78;;;20.60;59.00;;;;;;9183999;19;20019;-63
2022/07/18 07:11:57;;;;;;;4.68;1.98;;;20.70;59.10;;;;;;9183545;19;20014;-64
2022/07/18 07:15:02;;;;;;;5.75;1.92;;;20.90;59.00;;;;;;9184465;19;20022;-63
2022/07/18 07:18:10;;;;;;;15.18;2.67;;;21.00;58.80;;;;;;9183688;19;20015;-63
2022/07/18 07:21:15;;;;;;;7.22;2.03;;;21.20;58.60;;;;;;9184169;19;20015;-63
2022/07/18 07:24:24;;;;;;;6.43;2.00;;;21.30;58.60;;;;;;9182950;19;20023;-64
2022/07/18 07:27:29;;;;;;;4.93;1.55;;;21.50;58.50;;;;;;9179738;19;20018;-64
2022/07/18 07:30:35;;;;;;;6.60;1.67;;;21.60;58.30;;;;;;9181258;19;20018;-64
2022/07/18 07:33:44;;;;;;;13.98;1.83;;;21.80;58.20;;;;;;9177293;19;20022;-64
2022/07/18 07:36:49;;;;;;;6.93;1.75;;;22.00;58.00;;;;;;9179004;19;20006;-64
2022/07/18 07:39:54;;;;;;;10.05;1.90;;;22.20;57.90;;;;;;9182434;19;20019;-65
2022/07/18 07:43:09;;;;;;;4.30;1.70;;;22.50;58.00;;;;;;9176496;19;20025;-65
2022/07/18 07:46:14;;;;;;;8.25;1.80;;;22.70;57.70;;;;;;9175192;19;20654;-65
2022/07/18 07:49:22;;;;;;;5.85;1.70;;;23.00;57.60;;;;;;9172533;19;20014;-65
2022/07/18 07:52:28;;;;;;;6.05;1.75;;;23.20;57.30;;;;;;9176519;19;20338;-64
2022/07/18 07:55:33;;;;;;;9.57;1.83;;;23.50;57.20;;;;;;9175884;19;20065;-64
2022/07/18 07:58:39;;;;;;;15.30;1.88;;;23.70;56.90;;;;;;9175667;19;20018;-65
2022/07/18 08:01:44;;;;;;;4.65;1.50;;;24.00;56.40;;;;;;9179327;19;20014;-65
2022/07/18 08:04:52;;;;;;;5.63;1.42;;;24.30;56.10;;;;;;9176114;19;20007;-64
2022/07/18 08:07:57;;;;;;;10.18;1.90;;;24.60;55.60;;;;;;9183166;19;20376;-65
2022/07/18 08:11:02;;;;;;;12.48;1.98;;;24.90;55.40;;;;;;9177784;19;20472;-67
2022/07/18 08:14:07;;;;;;;5.93;1.88;;;25.10;54.90;;;;;;9176993;19;20021;-67
2022/07/18 08:17:12;;;;;;;6.85;1.83;;;25.40;54.70;;;;;;9181614;19;20793;-68
2022/07/18 08:20:20;;;;;;;5.38;1.63;;;25.60;54.40;;;;;;9182403;19;20018;-67
2022/07/18 08:23:25;;;;;;;5.32;2.00;;;25.90;54.00;;;;;;9178236;19;20026;-66
2022/07/18 08:26:30;;;;;;;7.07;1.70;;;26.10;54.30;;;;;;9176395;19;20021;-67
2022/07/18 08:29:35;;;;;;;6.93;1.83;;;26.30;53.60;;;;;;9176581;19;20019;-66
2022/07/18 08:33:01;;;;;;;4.90;1.60;;;26.50;53.30;;;;;;9177134;19;20022;-67
2022/07/18 08:36:09;;;;;;;9.40;2.10;;;26.70;53.20;;;;;;9177592;19;20506;-67
2022/07/18 08:39:14;;;;;;;7.30;1.65;;;26.90;52.70;;;;;;9180053;19;20495;-67
2022/07/18 08:42:25;;;;;;;10.95;1.40;;;27.10;52.70;;;;;;9179113;19;20014;-67
2022/07/18 08:45:29;;;;;;;5.90;1.65;;;27.30;52.50;;;;;;9175211;19;20018;-67
2022/07/18 08:48:35;;;;;;;12.10;1.80;;;27.40;52.30;;;;;;9181234;19;20699;-68
2022/07/18 08:51:43;;;;;;;11.40;1.80;;;27.60;52.00;;;;;;9179397;19;20018;-67
2022/07/18 08:54:49;;;;;;;9.55;1.55;;;27.70;51.80;;;;;;9180338;19;20034;-66
2022/07/18 08:58:03;;;;;;;9.77;1.60;;;27.80;51.70;;;;;;9179100;19;20015;-67
2022/07/18 09:01:28;;;;;;;4.70;1.42;;;28.00;51.50;;;;;;9178710;19;20015;-67
2022/07/18 09:04:39;;;;;;;8.05;2.20;;;28.20;51.40;;;;;;9179672;19;20046;-67
2022/07/18 09:07:46;;;;;;;12.77;1.73;;;28.40;51.00;;;;;;9174084;19;20037;-67
2022/07/18 09:10:53;;;;;;;5.70;1.55;;;28.60;50.90;;;;;;9171410;19;20026;-67
2022/07/18 09:13:58;;;;;;;4.10;1.52;;;28.70;50.60;;;;;;9175448;19;20018;-66
2022/07/18 09:17:09;;;;;;;3.30;1.65;;;28.90;50.50;;;;;;9179459;19;20018;-67
2022/07/18 09:20:16;;;;;;;2.45;1.25;;;29.10;50.30;;;;;;9177576;19;20044;-68
2022/07/18 09:23:30;;;;;;;13.68;1.58;;;29.30;50.10;;;;;;9178215;19;20022;-67
2022/07/18 09:26:41;;;;;;;3.92;1.75;;;29.50;49.80;;;;;;9171367;19;20388;-67
2022/07/18 09:29:46;;;;;;;6.72;1.50;;;29.70;49.60;;;;;;9175118;19;20349;-67
2022/07/18 09:32:53;;;;;;;7.90;1.63;;;29.80;49.40;;;;;;9172941;19;20014;-67
2022/07/18 09:35:59;;;;;;;4.72;1.45;;;29.90;49.20;;;;;;9172731;19;20401;-67
2022/07/18 09:39:19;;;;;;;3.97;1.40;;;30.10;49.00;;;;;;9170995;19;20028;-69
2022/07/18 09:42:25;;;;;;;5.75;1.25;;;30.20;48.40;;;;;;9175691;19;20022;-69
2022/07/18 09:45:32;;;;;;;9.82;1.33;;;30.40;48.70;;;;;;9176912;19;20017;-69
2022/07/18 09:48:37;;;;;;;6.35;1.70;;;30.40;48.30;;;;;;9173254;19;20022;-71
2022/07/18 09:52:04;;;;;;;3.00;1.30;;;30.60;48.10;;;;;;9170441;19;20480;-69
2022/07/18 09:55:13;;;;;;;3.88;1.45;;;30.70;47.50;;;;;;9177720;19;20444;-70
2022/07/18 09:58:20;;;;;;;7.25;1.40;;;30.80;47.60;;;;;;9178240;19;20026;-69
2022/07/18 10:01:26;;;;;;;7.00;1.50;;;31.00;47.50;;;;;;9167920;19;20456;-68
2022/07/18 10:04:32;;;;;;;3.97;1.40;;;31.00;47.00;;;;;;9172502;19;20096;-69
2022/07/18 10:07:37;;;;;;;4.82;1.63;;;31.10;46.80;;;;;;9168647;19;20384;-69
2022/07/18 10:10:46;;;;;;;6.70;1.52;;;31.30;46.90;;;;;;9177827;19;20019;-67
2022/07/18 10:13:52;;;;;;;7.55;1.77;;;31.30;46.50;;;;;;9182686;19;20022;-67
2022/07/18 10:16:58;;;;;;;8.35;1.70;;;31.50;46.30;;;;;;9181803;19;20037;-69
2022/07/18 10:20:06;;;;;;;6.10;1.70;;;31.60;46.10;;;;;;9178727;19;20017;-67
2022/07/18 10:23:16;;;;;;;23.38;1.88;;;31.60;45.70;;;;;;9180441;19;20028;-66
2022/07/18 10:26:25;;;;;;;4.15;1.70;;;31.80;45.60;;;;;;9185840;19;20018;-67
2022/07/18 10:29:30;;;;;;;5.07;1.80;;;31.90;45.30;;;;;;9182754;19;20041;-67
2022/07/18 10:32:36;;;;;;;7.35;1.67;;;32.00;45.20;;;;;;9176912;19;20049;-66
2022/07/18 10:36:06;;;;;;;7.13;1.77;;;32.10;44.90;;;;;;9179779;19;20022;-66
2022/07/18 10:39:20;;;;;;;8.38;1.70;;;32.20;44.40;;;;;;9180969;19;20021;-65
2022/07/18 10:42:30;;;;;;;6.13;1.95;;;32.40;44.70;;;;;;9181208;19;20023;-67
2022/07/18 10:45:46;;;;;;;4.15;1.52;;;32.50;44.40;;;;;;9178486;19;20033;-66
2022/07/18 10:48:53;;;;;;;4.72;1.58;;;32.50;43.90;;;;;;9179640;19;20018;-65
2022/07/18 10:51:58;;;;;;;3.33;1.90;;;32.60;44.00;;;;;;9172805;19;20026;-66
2022/07/18 10:55:33;;;;;;;6.80;2.13;;;32.80;43.90;;;;;;9177374;19;20029;-65
2022/07/18 10:58:43;;;;;;;5.32;1.60;;;32.90;43.30;;;;;;9183432;19;20537;-66
2022/07/18 11:01:52;;;;;;;4.63;1.70;;;33.00;43.40;;;;;;9180817;19;20344;-71
2022/07/18 11:04:57;;;;;;;7.68;1.98;;;33.20;43.20;;;;;;9174474;19;20018;-67
2022/07/18 11:08:18;;;;;;;6.38;2.28;;;33.30;43.00;;;;;;9177270;19;20029;-67
2022/07/18 11:11:23;;;;;;;4.95;2.35;;;33.40;42.50;;;;;;9178089;19;20015;-68
2022/07/18 11:14:58;;;;;;;4.07;2.03;;;33.50;42.50;;;;;;9178322;19;20015;-68
2022/07/18 11:18:13;;;;;;;4.60;2.15;;;33.70;42.00;;;;;;9180099;19;20487;-68
2022/07/18 11:21:19;;;;;;;6.72;1.67;;;33.70;42.10;;;;;;9182877;19;20421;-68
2022/07/18 11:24:37;;;;;;;8.15;1.83;;;33.80;41.90;;;;;;9178652;19;20022;-67
2022/07/18 11:27:42;;;;;;;5.05;2.30;;;33.90;41.80;;;;;;9175051;19;20387;-67
2022/07/18 11:30:48;;;;;;;5.95;2.10;;;34.00;41.50;;;;;;9173833;19;20089;-68
2022/07/18 11:33:57;;;;;;;5.78;2.13;;;34.10;41.40;;;;;;9173381;19;20471;-67
2022/07/18 11:37:02;;;;;;;6.00;2.00;;;34.20;41.00;;;;;;9170656;19;20392;-67
2022/07/18 11:40:11;;;;;;;4.45;2.47;;;34.30;40.90;;;;;;9171353;19;20010;-68
2022/07/18 11:43:22;;;;;;;8.57;2.00;;;34.40;40.60;;;;;;9170944;19;20026;-68
2022/07/18 11:46:29;;;;;;;6.70;2.00;;;34.50;40.20;;;;;;9174433;19;20045;-68
2022/07/18 11:49:39;;;;;;;3.47;2.05;;;34.60;40.40;;;;;;9176220;19;20014;-68
2022/07/18 11:52:46;;;;;;;8.95;2.42;;;34.60;40.10;;;;;;9173104;19;21195;-68
2022/07/18 11:55:51;;;;;;;10.98;2.58;;;34.70;40.00;;;;;;9171829;19;20015;-68
2022/07/18 11:58:57;;;;;;;6.03;1.98;;;34.80;39.80;;;;;;9167860;19;20014;-68
2022/07/18 12:02:03;;;;;;;3.53;1.70;;;34.80;39.70;;;;;;9170755;19;20018;-68
2022/07/18 12:05:11;;;;;;;4.00;2.30;;;34.80;39.50;;;;;;9163799;19;20110;-68
2022/07/18 12:08:34;;;;;;;10.05;2.30;;;34.90;39.20;;;;;;9169049;19;20022;-67
2022/07/18 12:11:45;;;;;;;3.13;2.10;;;35.00;39.00;;;;;;9169175;19;20018;-68
2022/07/18 12:15:12;;;;;;;7.47;2.63;;;35.10;39.10;;;;;;9171282;19;20022;-70
2022/07/18 12:18:30;;;;;;;3.47;1.75;;;35.10;38.90;;;;;;9171437;19;20538;-68
2022/07/18 12:21:50;;;;;;;4.78;2.00;;;35.10;38.50;;;;;;9169754;19;20018;-66
2022/07/18 12:24:57;;;;;;;4.20;2.78;;;35.20;38.40;;;;;;9169809;19;20027;-68
2022/07/18 12:28:15;;;;;;;3.17;2.05;;;35.20;38.60;;;;;;9171247;19;20018;-67
2022/07/18 12:31:39;;;;;;;3.40;1.75;;;35.20;38.20;;;;;;9168684;19;20022;-67
2022/07/18 12:34:56;;;;;;;5.50;1.80;;;35.20;38.00;;;;;;9172045;19;20019;-67
2022/07/18 12:38:06;;;;;;;4.40;2.30;;;35.30;38.00;;;;;;9168516;19;20030;-67
2022/07/18 12:41:11;;;;;;;4.72;2.17;;;35.30;38.00;;;;;;9168947;19;20015;-67
2022/07/18 12:44:16;;;;;;;3.72;2.00;;;35.40;38.10;;;;;;9169148;19;20089;-67
2022/07/18 12:47:21;;;;;;;13.40;2.58;;;35.40;38.00;;;;;;9172549;19;20015;-65
2022/07/18 12:50:27;;;;;;;6.38;2.20;;;35.40;37.80;;;;;;9169454;19;20014;-66
2022/07/18 12:53:37;;;;;;;5.47;2.08;;;35.40;38.00;;;;;;9168610;19;20014;-67
2022/07/18 12:56:42;;;;;;;5.13;2.08;;;35.50;37.90;;;;;;9169114;19;20455;-67
2022/07/18 12:59:48;;;;;;;5.32;1.80;;;35.50;38.00;;;;;;9168304;19;20022;-67
2022/07/18 13:02:55;;;;;;;6.50;2.58;;;35.50;37.80;;;;;;9169092;19;20054;-67
2022/07/18 13:06:03;;;;;;;10.68;1.98;;;35.60;37.90;;;;;;9163424;19;20114;-67
2022/07/18 13:09:11;;;;;;;7.28;2.08;;;35.60;37.90;;;;;;9170025;19;20018;-66
2022/07/18 13:12:16;;;;;;;7.03;2.30;;;35.60;37.80;;;;;;9168434;19;20037;-66
2022/07/18 13:15:21;;;;;;;3.67;2.05;;;35.60;37.80;;;;;;9171347;19;20015;-66
2022/07/18 13:18:26;;;;;;;4.88;1.73;;;35.60;37.80;;;;;;9172026;19;20487;-66
2022/07/18 13:21:32;;;;;;;5.80;1.63;;;35.60;37.60;;;;;;9168144;19;20048;-66
2022/07/18 13:24:40;;;;;;;5.75;1.85;;;35.60;37.40;;;;;;9165811;19;20022;-66
2022/07/18 13:27:45;;;;;;;3.00;1.67;;;35.60;37.30;;;;;;9172622;19;20018;-66
2022/07/18 13:30:50;;;;;;;4.80;1.85;;;35.60;37.40;;;;;;9172515;19;20023;-66
2022/07/18 13:33:55;;;;;;;4.13;2.00;;;35.60;37.40;;;;;;9165195;19;20011;-67
2022/07/18 13:37:00;;;;;;;3.47;1.83;;;35.60;37.30;;;;;;9166702;19;20684;-66
2022/07/18 13:40:09;;;;;;;5.93;1.75;;;35.70;37.40;;;;;;9168069;19;20023;-67
2022/07/18 13:43:14;;;;;;;4.72;1.92;;;35.70;37.30;;;;;;9171691;19;20023;-66
2022/07/18 13:46:19;;;;;;;2.92;1.60;;;35.70;37.30;;;;;;9180147;19;20028;-67
2022/07/18 13:49:24;;;;;;;2.60;1.40;;;35.70;37.40;;;;;;9178175;19;20358;-67
2022/07/18 13:52:29;;;;;;;1.85;1.27;;;35.70;37.20;;;;;;9183418;19;20018;-67
2022/07/18 13:55:37;;;;;;;2.72;1.33;;;35.80;37.20;;;;;;9185316;19;20029;-67
2022/07/18 13:58:42;;;;;;;1.85;1.00;;;35.80;37.00;;;;;;9183588;19;20010;-66
2022/07/18 14:01:47;;;;;;;5.68;1.38;;;35.80;36.90;;;;;;9183008;19;20031;-66
2022/07/18 14:04:52;;;;;;;5.95;1.70;;;35.80;37.00;;;;;;9178157;19;20503;-67
2022/07/18 14:08:17;;;;;;;3.38;1.48;;;35.80;36.90;;;;;;9181672;19;20491;-67
2022/07/18 14:11:25;;;;;;;4.07;1.23;;;35.80;36.90;;;;;;9183782;19;20024;-67
2022/07/18 14:14:30;;;;;;;5.35;1.67;;;35.80;36.70;;;;;;9178218;19;20014;-66
2022/07/18 14:17:35;;;;;;;4.00;1.30;;;35.90;36.90;;;;;;9183648;19;20041;-66
2022/07/18 14:20:40;;;;;;;4.25;1.58;;;35.80;36.70;;;;;;9183207;19;20033;-66
2022/07/18 14:23:45;;;;;;;3.10;1.50;;;35.90;36.90;;;;;;9187911;19;20007;-67
2022/07/18 14:26:53;;;;;;;7.05;1.23;;;35.90;36.70;;;;;;9187059;19;20017;-66
2022/07/18 14:29:59;;;;;;;2.17;1.20;;;35.90;36.50;;;;;;9187011;19;20022;-66
2022/07/18 14:33:04;;;;;;;2.17;1.40;;;35.90;36.50;;;;;;9182090;19;20498;-66
2022/07/18 14:36:14;;;;;;;5.82;1.58;;;36.00;36.50;;;;;;9185483;19;20782;-66
2022/07/18 14:39:19;;;;;;;5.57;2.20;;;36.00;36.50;;;;;;9185215;19;20026;-66
2022/07/18 14:42:27;;;;;;;6.65;1.48;;;35.90;36.40;;;;;;9186598;19;20558;-66
2022/07/18 14:45:32;;;;;;;2.03;1.30;;;35.90;36.30;;;;;;9185438;19;20014;-66
2022/07/18 14:48:52;;;;;;;3.50;1.70;;;35.90;36.40;;;;;;9184166;19;20011;-66
2022/07/18 14:51:58;;;;;;;8.77;1.25;;;35.90;36.30;;;;;;9186065;19;20021;-66
2022/07/18 14:55:03;;;;;;;5.00;1.20;;;35.80;36.20;;;;;;9182544;19;20019;-66
2022/07/18 14:58:11;;;;;;;3.40;1.35;;;35.80;36.10;;;;;;9182992;19;20039;-67
2022/07/18 15:01:19;;;;;;;5.28;1.50;;;35.80;36.00;;;;;;9183759;19;20056;-67
2022/07/18 15:04:24;;;;;;;2.35;1.33;;;35.70;36.10;;;;;;9183240;19;20773;-68
2022/07/18 15:07:29;;;;;;;1.67;1.20;;;35.70;36.10;;;;;;9180283;19;20029;-68
2022/07/18 15:10:34;;;;;;;7.50;1.48;;;35.80;36.20;;;;;;9183457;19;20022;-67
2022/07/18 15:13:42;;;;;;;4.45;1.52;;;35.70;36.30;;;;;;9182632;19;20342;-67
2022/07/18 15:16:47;;;;;;;3.67;1.38;;;35.70;36.20;;;;;;9181862;19;20022;-68
2022/07/18 15:19:52;;;;;;;8.23;1.95;;;35.60;36.30;;;;;;9180715;19;20023;-68
2022/07/18 15:22:57;;;;;;;3.63;1.55;;;35.60;36.30;;;;;;9185658;19;20523;-68
2022/07/18 15:26:02;;;;;;;3.08;1.13;;;35.50;36.30;;;;;;9183103;19;20014;-67
2022/07/18 15:29:10;;;;;;;5.95;1.35;;;35.50;36.30;;;;;;9182071;19;20034;-68
2022/07/18 15:32:15;;;;;;;3.78;1.65;;;35.50;36.30;;;;;;9182167;19;20015;-67
2022/07/18 15:35:20;;;;;;;3.55;1.27;;;35.40;36.30;;;;;;9171116;19;20023;-66
2022/07/18 15:38:25;;;;;;;2.90;1.50;;;35.40;36.40;;;;;;9182729;19;20015;-67
2022/07/18 15:41:30;;;;;;;2.20;1.38;;;35.40;36.40;;;;;;9168972;19;20014;-66
2022/07/18 15:44:39;;;;;;;5.68;1.40;;;35.30;36.50;;;;;;9171513;19;20014;-67
2022/07/18 15:47:45;;;;;;;2.78;1.35;;;35.30;36.50;;;;;;9171598;19;20030;-67
2022/07/18 15:50:50;;;;;;;5.22;1.85;;;35.30;36.60;;;;;;9166223;19;20015;-68
2022/07/18 15:53:55;;;;;;;4.25;1.27;;;35.20;36.60;;;;;;9168576;19;20021;-69
2022/07/18 15:57:00;;;;;;;7.00;1.70;;;35.20;36.50;;;;;;9171076;19;20022;-68
2022/07/18 16:00:09;;;;;;;2.33;1.27;;;35.10;36.50;;;;;;9169771;19;20018;-66
2022/07/18 16:03:18;;;;;;;;;;;35.10;36.60;;;;;;9176152;19;20018;-67
2022/07/18 16:06:23;;;;;;;3.45;1.73;;;35.00;36.90;;;;;;9170916;19;19934;-67
2022/07/18 16:09:28;;;;;;;3.30;1.70;;;34.90;36.80;;;;;;9175225;19;20022;-67
2022/07/18 16:12:33;;;;;;;5.10;1.50;;;34.90;36.90;;;;;;9173115;19;20014;-68